createdAt,value
2023-01-29T00:00:28.447Z,4.10
2023-01-29T00:02:56.906Z,4.07
2023-01-29T00:05:28.125Z,3.90
2023-01-29T00:07:57.697Z,4.40
2023-01-29T00:10:27.040Z,4.27
2023-01-29T00:12:55.745Z,3.40
2023-01-29T00:15:24.189Z,4.20
2023-01-29T00:17:54.013Z,3.80
2023-01-29T00:20:22.446Z,3.93
2023-01-29T00:22:50.951Z,4.17
2023-01-29T00:25:19.704Z,4.20
2023-01-29T00:27:48.155Z,4.83
2023-01-29T00:30:19.897Z,4.70
2023-01-29T00:32:48.888Z,4.80
2023-01-29T00:35:19.001Z,4.40
2023-01-29T00:37:47.690Z,3.90
2023-01-29T00:40:16.713Z,4.70
2023-01-29T00:43:04.126Z,4.87
2023-01-29T00:45:32.636Z,5.33
2023-01-29T00:48:01.121Z,5.07
2023-01-29T00:50:31.416Z,5.00
2023-01-29T00:53:00.105Z,4.63
2023-01-29T00:55:28.619Z,5.50
2023-01-29T00:57:57.328Z,5.17
2023-01-29T01:00:26.264Z,5.20
2023-01-29T01:03:08.633Z,5.73
2023-01-29T01:05:39.392Z,6.70
2023-01-29T01:08:29.020Z,6.17
2023-01-29T01:11:00.819Z,6.23
2023-01-29T01:13:29.411Z,6.63
2023-01-29T01:15:57.859Z,6.37
2023-01-29T01:18:26.399Z,6.27
2023-01-29T01:21:00.122Z,6.83
2023-01-29T01:23:28.606Z,6.63
2023-01-29T01:25:57.079Z,6.80
2023-01-29T01:28:25.900Z,6.63
2023-01-29T01:30:54.372Z,7.10
2023-01-29T01:33:22.843Z,7.47
2023-01-29T01:35:51.292Z,6.87
2023-01-29T01:38:21.101Z,7.13
2023-01-29T01:40:49.523Z,7.63
2023-01-29T01:43:18.020Z,6.60
2023-01-29T01:45:46.969Z,8.20
2023-01-29T01:48:21.132Z,7.37
2023-01-29T01:50:52.431Z,8.03
2023-01-29T01:53:28.039Z,8.00
2023-01-29T01:56:00.468Z,8.10
2023-01-29T01:58:33.314Z,7.20
2023-01-29T02:01:02.786Z,7.83
2023-01-29T02:03:50.215Z,7.67
2023-01-29T02:06:36.398Z,7.50
2023-01-29T02:09:28.407Z,7.87
2023-01-29T02:11:57.582Z,8.37
2023-01-29T02:14:26.715Z,7.70
2023-01-29T02:16:55.370Z,8.87
2023-01-29T02:19:38.010Z,8.03
2023-01-29T02:22:26.101Z,8.13
2023-01-29T02:25:32.868Z,7.50
2023-01-29T02:28:15.523Z,8.37
2023-01-29T02:30:51.534Z,8.67
2023-01-29T02:33:27.495Z,7.43
2023-01-29T02:36:04.746Z,7.80
2023-01-29T02:38:41.968Z,7.83
2023-01-29T02:41:16.995Z,7.10
2023-01-29T02:43:49.366Z,6.73
2023-01-29T02:46:32.351Z,6.47
2023-01-29T02:49:09.945Z,6.77
2023-01-29T02:51:44.798Z,6.60
2023-01-29T02:54:21.884Z,5.90
2023-01-29T02:56:55.376Z,5.87
2023-01-29T02:59:32.796Z,5.40
2023-01-29T03:09:21.936Z,5.70
2023-01-29T03:11:54.871Z,5.57
2023-01-29T03:14:51.699Z,5.70
2023-01-29T03:17:22.865Z,4.80
2023-01-29T03:19:52.454Z,5.40
2023-01-29T03:22:23.448Z,4.73
2023-01-29T03:25:12.007Z,5.30
2023-01-29T03:28:03.728Z,5.03
2023-01-29T03:30:55.308Z,4.43
2023-01-29T03:33:27.665Z,5.07
2023-01-29T03:36:02.698Z,5.40
2023-01-29T03:38:32.330Z,5.13
2023-01-29T03:41:06.528Z,4.40
2023-01-29T03:43:41.317Z,4.83
2023-01-29T03:46:19.470Z,4.43
2023-01-29T03:48:56.614Z,5.37
2023-01-29T03:51:31.772Z,4.73
2023-01-29T03:54:09.648Z,5.27
2023-01-29T03:56:57.828Z,4.43
2023-01-29T03:59:39.583Z,4.60
2023-01-29T04:02:14.651Z,4.23
2023-01-29T04:04:46.837Z,4.07
2023-01-29T04:07:19.344Z,5.07
2023-01-29T04:09:51.450Z,4.77
2023-01-29T04:12:26.573Z,4.23
2023-01-29T04:14:56.232Z,4.77
2023-01-29T04:17:33.156Z,4.63
2023-01-29T04:20:02.616Z,4.30
2023-01-29T04:22:34.853Z,4.30
2023-01-29T04:25:08.687Z,4.33
2023-01-29T04:27:44.676Z,4.17
2023-01-29T04:30:28.163Z,4.27
2023-01-29T04:33:12.599Z,4.07
2023-01-29T04:36:00.236Z,4.33
2023-01-29T04:38:41.128Z,4.43
2023-01-29T04:41:16.593Z,4.37
2023-01-29T04:43:53.395Z,4.60
2023-01-29T04:46:24.848Z,5.00
2023-01-29T04:49:14.656Z,5.23
2023-01-29T04:51:50.868Z,5.10
2023-01-29T04:54:30.287Z,4.87
2023-01-29T04:57:06.397Z,5.57
2023-01-29T04:59:43.070Z,5.70
2023-01-29T05:02:13.928Z,5.20
2023-01-29T05:04:46.990Z,5.10
2023-01-29T05:07:16.936Z,5.83
2023-01-29T05:09:47.180Z,5.00
2023-01-29T05:12:18.713Z,5.23
2023-01-29T05:14:49.539Z,5.60
2023-01-29T05:17:21.592Z,5.10
2023-01-29T05:19:51.636Z,6.30
2023-01-29T05:22:22.911Z,5.07
2023-01-29T05:24:51.836Z,5.00
2023-01-29T05:27:41.755Z,5.43
2023-01-29T05:30:11.691Z,4.53
2023-01-29T05:32:40.156Z,5.43
2023-01-29T05:35:10.818Z,5.07
2023-01-29T05:37:39.460Z,5.50
2023-01-29T05:40:10.005Z,4.77
2023-01-29T05:42:38.384Z,5.03
2023-01-29T05:45:07.771Z,5.40
2023-01-29T05:47:36.286Z,5.47
2023-01-29T05:50:06.136Z,6.30
2023-01-29T05:52:36.070Z,5.27
2023-01-29T05:55:04.603Z,5.07
2023-01-29T05:57:33.018Z,4.00
2023-01-29T06:00:01.450Z,5.03
2023-01-29T06:02:31.814Z,4.37
2023-01-29T06:05:00.237Z,4.67
2023-01-29T06:07:28.686Z,4.50
2023-01-29T06:09:58.494Z,4.43
2023-01-29T06:12:28.873Z,4.13
2023-01-29T06:14:57.280Z,4.77
2023-01-29T06:17:25.693Z,4.83
2023-01-29T06:19:54.340Z,5.30
2023-01-29T06:22:22.772Z,4.90
2023-01-29T06:24:51.279Z,4.20
2023-01-29T06:27:21.127Z,4.60
2023-01-29T06:29:49.700Z,4.33
2023-01-29T06:32:18.333Z,4.70
2023-01-29T06:34:49.457Z,4.80
2023-01-29T06:37:18.243Z,5.07
2023-01-29T06:39:46.634Z,5.00
2023-01-29T06:42:15.161Z,5.03
2023-01-29T06:44:46.001Z,4.97
2023-01-29T06:47:17.399Z,4.80
2023-01-29T06:49:45.969Z,4.80
2023-01-29T06:52:14.663Z,5.40
2023-01-29T06:54:43.141Z,5.17
2023-01-29T06:57:13.065Z,5.13
2023-01-29T06:59:41.699Z,5.13
2023-01-29T07:02:13.166Z,5.47
2023-01-29T07:04:43.077Z,5.10
2023-01-29T07:07:13.529Z,5.23
2023-01-29T07:09:42.758Z,5.10
2023-01-29T07:12:11.783Z,5.23
2023-01-29T07:14:40.199Z,5.10
2023-01-29T07:17:08.954Z,5.20
2023-01-29T07:19:38.795Z,5.00
2023-01-29T07:22:07.200Z,4.83
2023-01-29T07:24:35.785Z,5.67
2023-01-29T07:27:04.357Z,5.00
2023-01-29T07:29:32.907Z,5.53
2023-01-29T07:32:01.620Z,5.13
2023-01-29T07:34:31.326Z,6.00
2023-01-29T07:37:01.280Z,5.30
2023-01-29T07:39:29.856Z,4.77
2023-01-29T07:41:58.298Z,5.33
2023-01-29T07:44:26.755Z,6.00
2023-01-29T07:46:55.309Z,4.90
2023-01-29T07:49:23.770Z,5.00
2023-01-29T07:51:52.307Z,5.07
2023-01-29T07:54:22.327Z,4.73
2023-01-29T07:56:51.679Z,4.67
2023-01-29T07:59:20.920Z,5.33
2023-01-29T08:01:49.513Z,5.50
2023-01-29T08:04:18.050Z,5.83
2023-01-29T08:06:46.739Z,5.40
2023-01-29T08:09:15.351Z,5.10
2023-01-29T08:11:45.406Z,5.10
2023-01-29T08:14:13.837Z,5.50
2023-01-29T08:16:42.666Z,4.93
2023-01-29T08:19:11.428Z,5.30
2023-01-29T08:21:39.919Z,5.37
2023-01-29T08:24:08.751Z,6.23
2023-01-29T08:26:37.311Z,5.03
2023-01-29T08:29:07.279Z,5.67
2023-01-29T08:31:36.090Z,5.73
2023-01-29T08:34:04.915Z,5.80
2023-01-29T08:36:33.897Z,5.33
2023-01-29T08:39:02.825Z,5.43
2023-01-29T08:41:31.616Z,6.30
2023-01-29T08:44:01.710Z,5.83
2023-01-29T08:46:31.755Z,5.30
2023-01-29T08:49:00.335Z,6.47
2023-01-29T08:51:28.806Z,5.70
2023-01-29T08:53:57.654Z,5.70
2023-01-29T08:56:26.605Z,4.93
2023-01-29T08:58:55.301Z,6.20
2023-01-29T09:01:23.774Z,6.13
2023-01-29T09:03:53.700Z,6.60
2023-01-29T09:06:22.254Z,5.73
2023-01-29T09:08:51.655Z,5.77
2023-01-29T09:11:20.198Z,6.70
2023-01-29T09:13:48.663Z,6.70
2023-01-29T09:16:17.281Z,5.77
2023-01-29T09:18:45.742Z,6.40
2023-01-29T09:21:15.729Z,5.97
2023-01-29T09:23:44.273Z,5.80
2023-01-29T09:26:12.792Z,6.77
2023-01-29T09:28:41.220Z,6.53
2023-01-29T09:31:12.526Z,7.50
2023-01-29T09:33:41.112Z,5.93
2023-01-29T09:36:10.599Z,6.70
2023-01-29T09:38:40.510Z,6.53
2023-01-29T09:41:24.239Z,6.03
2023-01-29T09:43:57.018Z,6.90
2023-01-29T09:46:34.299Z,6.43
2023-01-29T09:49:08.858Z,6.27
2023-01-29T09:51:42.128Z,7.37
2023-01-29T09:54:21.302Z,6.33
2023-01-29T09:56:54.283Z,6.70
2023-01-29T09:59:24.981Z,7.40
2023-01-29T10:02:04.878Z,6.53
2023-01-29T10:04:54.088Z,7.13
2023-01-29T10:07:39.987Z,6.90
2023-01-29T10:10:37.523Z,7.50
2023-01-29T10:13:17.450Z,7.27
2023-01-29T10:16:06.448Z,7.63
2023-01-29T10:19:08.001Z,6.00
2023-01-29T10:21:54.036Z,6.67
2023-01-29T10:24:30.969Z,7.33
2023-01-29T10:27:02.732Z,6.83
2023-01-29T10:29:34.335Z,6.63
2023-01-29T10:32:06.191Z,6.93
2023-01-29T10:34:42.468Z,7.17
2023-01-29T10:37:18.756Z,7.63
2023-01-29T10:39:47.563Z,6.77
2023-01-29T10:42:33.600Z,6.60
2023-01-29T10:45:15.831Z,6.13
2023-01-29T10:48:10.130Z,6.77
2023-01-29T10:50:49.218Z,6.33
2023-01-29T10:53:31.146Z,6.67
2023-01-29T10:56:21.816Z,7.17
2023-01-29T10:58:55.190Z,6.27
2023-01-29T11:01:23.844Z,6.93
2023-01-29T11:03:59.739Z,7.40
2023-01-29T11:06:32.360Z,6.07
2023-01-29T11:09:12.608Z,6.57
2023-01-29T11:11:45.867Z,6.77
2023-01-29T11:14:23.069Z,6.50
2023-01-29T11:16:51.777Z,7.50
2023-01-29T11:19:38.227Z,7.80
2023-01-29T11:22:09.817Z,7.17
2023-01-29T11:24:41.046Z,6.73
2023-01-29T11:27:18.752Z,7.43
2023-01-29T11:29:50.819Z,8.80
2023-01-29T11:32:29.978Z,7.23
2023-01-29T11:35:01.999Z,7.23
2023-01-29T11:37:37.247Z,7.83
2023-01-29T11:40:41.471Z,7.03
2023-01-29T11:43:23.162Z,7.33
2023-01-29T11:45:55.538Z,6.47
2023-01-29T11:48:33.526Z,6.23
2023-01-29T11:51:05.590Z,6.27
2023-01-29T11:53:38.899Z,6.97
2023-01-29T11:56:20.089Z,6.30
2023-01-29T11:58:51.960Z,7.27
2023-01-29T12:01:32.087Z,7.23
2023-01-29T12:04:01.855Z,7.07
2023-01-29T12:06:37.338Z,6.50
2023-01-29T12:09:17.598Z,5.97
2023-01-29T12:11:46.251Z,5.87
2023-01-29T12:14:30.305Z,5.57
2023-01-29T12:17:02.913Z,5.33
2023-01-29T12:19:39.759Z,5.47
2023-01-29T12:22:17.342Z,5.23
2023-01-29T12:24:55.638Z,5.77
2023-01-29T12:27:31.889Z,5.97
2023-01-29T12:30:07.781Z,6.03
2023-01-29T12:32:47.250Z,6.80
2023-01-29T12:35:24.737Z,5.37
2023-01-29T12:38:01.172Z,6.20
2023-01-29T12:40:34.449Z,5.67
2023-01-29T12:43:12.782Z,5.70
2023-01-29T12:45:45.381Z,4.90
2023-01-29T12:48:25.054Z,5.10
2023-01-29T12:50:55.227Z,4.67
2023-01-29T12:53:32.213Z,4.27
2023-01-29T12:56:04.944Z,4.77
2023-01-29T12:58:37.767Z,4.70
2023-01-29T13:01:15.735Z,4.43
2023-01-29T13:03:56.503Z,4.20
2023-01-29T13:06:32.063Z,4.17
2023-01-29T13:09:04.926Z,4.33
2023-01-29T13:11:40.119Z,4.83
2023-01-29T13:14:15.794Z,5.10
2023-01-29T13:16:48.099Z,5.33
2023-01-29T13:19:24.532Z,5.20
2023-01-29T13:21:55.850Z,5.90
2023-01-29T13:24:27.318Z,5.70
2023-01-29T13:26:56.206Z,6.07
2023-01-29T13:29:30.085Z,5.90
2023-01-29T13:32:01.624Z,5.83
2023-01-29T13:34:33.949Z,6.00
2023-01-29T13:37:04.782Z,6.20
2023-01-29T13:39:37.773Z,6.93
2023-01-29T13:42:22.677Z,6.00
2023-01-29T13:44:55.463Z,6.97
2023-01-29T13:47:28.299Z,6.07
2023-01-29T13:50:03.839Z,6.13
2023-01-29T13:52:41.213Z,7.43
2023-01-29T13:55:24.174Z,6.67
2023-01-29T13:57:56.272Z,6.20
2023-01-29T14:01:01.720Z,7.10
2023-01-29T14:04:10.180Z,6.97
2023-01-29T14:06:45.519Z,6.60
2023-01-29T14:09:56.550Z,6.80
2023-01-29T14:12:43.134Z,8.10
2023-01-29T14:15:32.584Z,15.57
2023-01-29T14:18:23.878Z,9.83
2023-01-29T14:20:59.581Z,10.70
2023-01-29T14:23:49.456Z,22.23
2023-01-29T14:26:25.627Z,26.70
2023-01-29T14:28:59.248Z,52.67
2023-01-29T14:31:47.211Z,25.77
2023-01-29T14:34:25.289Z,22.47
2023-01-29T14:36:59.742Z,15.03
2023-01-29T14:39:37.659Z,14.30
2023-01-29T14:42:17.771Z,9.47
2023-01-29T14:45:11.545Z,9.47
2023-01-29T14:47:59.824Z,8.20
2023-01-29T14:50:54.989Z,7.87
2023-01-29T14:53:50.491Z,8.00
2023-01-29T14:56:31.944Z,12.83
2023-01-29T14:59:13.459Z,11.83
2023-01-29T15:01:48.626Z,18.07
2023-01-29T15:04:22.732Z,44.83
2023-01-29T15:06:56.969Z,32.37
2023-01-29T15:09:37.347Z,36.93
2023-01-29T15:12:20.701Z,36.03
2023-01-29T15:15:05.447Z,18.40
2023-01-29T15:17:42.051Z,11.70
2023-01-29T15:20:38.677Z,15.83
2023-01-29T15:23:26.755Z,12.10
2023-01-29T15:25:58.285Z,8.53
2023-01-29T15:28:31.136Z,9.33
2023-01-29T15:31:01.957Z,7.70
2023-01-29T15:33:31.675Z,7.73
2023-01-29T15:36:07.454Z,8.00
2023-01-29T15:38:36.562Z,7.43
2023-01-29T15:41:17.744Z,7.70
2023-01-29T15:43:49.372Z,8.03
2023-01-29T15:46:26.067Z,8.77
2023-01-29T15:48:56.479Z,7.80
2023-01-29T15:51:28.513Z,8.10
2023-01-29T15:53:59.817Z,9.03
2023-01-29T15:56:31.978Z,9.07
2023-01-29T15:59:09.366Z,9.13
2023-01-29T16:01:38.461Z,8.17
2023-01-29T16:04:07.548Z,9.00
2023-01-29T16:06:39.374Z,9.10
2023-01-29T16:09:08.845Z,9.57
2023-01-29T16:11:38.067Z,9.13
2023-01-29T16:14:09.133Z,9.70
2023-01-29T16:16:37.866Z,9.80
2023-01-29T16:19:15.683Z,9.23
2023-01-29T16:21:46.384Z,9.33
2023-01-29T16:24:22.751Z,9.13
2023-01-29T16:26:53.103Z,9.30
2023-01-29T16:29:25.105Z,8.80
2023-01-29T16:32:00.724Z,10.03
2023-01-29T16:34:32.985Z,9.47
2023-01-29T16:37:03.363Z,9.77
2023-01-29T16:39:36.154Z,11.00
2023-01-29T16:42:23.273Z,9.47
2023-01-29T16:45:03.787Z,10.67
2023-01-29T16:47:36.449Z,9.57
2023-01-29T16:50:25.659Z,9.73
2023-01-29T16:52:59.355Z,9.70
2023-01-29T16:55:27.980Z,10.43
2023-01-29T16:57:57.602Z,9.60
2023-01-29T17:00:31.293Z,10.07
2023-01-29T17:03:05.191Z,10.50
2023-01-29T17:05:36.667Z,10.87
2023-01-29T17:08:06.193Z,10.10
2023-01-29T17:10:36.268Z,10.03
2023-01-29T17:13:07.803Z,10.40
2023-01-29T17:15:50.928Z,10.33
2023-01-29T17:18:22.145Z,10.00
2023-01-29T17:20:53.216Z,10.60
2023-01-29T17:23:23.408Z,10.57
2023-01-29T17:25:52.620Z,10.40
2023-01-29T17:28:25.083Z,10.47
2023-01-29T17:31:05.925Z,10.97
2023-01-29T17:33:37.004Z,9.93
2023-01-29T17:36:05.895Z,11.33
2023-01-29T17:38:34.920Z,9.77
2023-01-29T17:41:07.894Z,12.23
2023-01-29T17:43:36.473Z,11.83
2023-01-29T17:46:07.350Z,11.93
2023-01-29T17:48:35.903Z,12.23
2023-01-29T17:51:06.003Z,12.27
2023-01-29T17:53:45.585Z,12.60
2023-01-29T17:56:18.893Z,12.70
2023-01-29T17:58:47.974Z,12.50
2023-01-29T18:01:18.663Z,11.57
2023-01-29T18:03:47.282Z,12.37
2023-01-29T18:06:27.522Z,13.83
2023-01-29T18:08:57.701Z,12.27
2023-01-29T18:11:26.540Z,13.60
2023-01-29T18:13:55.392Z,13.23
2023-01-29T18:16:26.341Z,12.83
2023-01-29T18:18:55.163Z,13.33
2023-01-29T18:21:23.593Z,12.97
2023-01-29T18:23:52.498Z,13.03
2023-01-29T18:26:22.504Z,12.93
2023-01-29T18:28:51.961Z,12.57
2023-01-29T18:31:20.453Z,13.40
2023-01-29T18:33:51.257Z,13.40
2023-01-29T18:36:19.676Z,14.77
2023-01-29T18:38:48.131Z,14.80
2023-01-29T18:41:17.016Z,14.63
2023-01-29T18:43:45.626Z,13.40
2023-01-29T18:46:14.310Z,14.33
2023-01-29T18:48:43.029Z,14.27
2023-01-29T18:51:13.123Z,15.30
2023-01-29T18:53:41.851Z,14.00
2023-01-29T18:56:12.138Z,13.33
2023-01-29T18:58:40.484Z,16.87
2023-01-29T19:01:12.237Z,20.73
2023-01-29T19:03:42.292Z,21.37
2023-01-29T19:06:13.952Z,19.43
2023-01-29T19:08:43.179Z,24.13
2023-01-29T19:11:12.776Z,22.63
2023-01-29T19:13:43.144Z,21.37
2023-01-29T19:16:12.847Z,26.97
2023-01-29T19:18:45.821Z,22.47
2023-01-29T19:21:20.556Z,36.77
2023-01-29T19:23:49.454Z,22.37
2023-01-29T19:26:18.163Z,19.47
2023-01-29T19:28:46.608Z,23.00
2023-01-29T19:31:15.155Z,24.50
2023-01-29T19:33:43.690Z,21.00
2023-01-29T19:36:13.805Z,26.90
2023-01-29T19:38:43.845Z,24.10
2023-01-29T19:41:12.609Z,20.37
2023-01-29T19:43:43.209Z,28.20
2023-01-29T19:46:11.853Z,40.80
2023-01-29T19:48:40.433Z,40.27
2023-01-29T19:51:12.283Z,34.70
2023-01-29T19:53:44.048Z,33.97
2023-01-29T19:56:16.064Z,45.67
2023-01-29T19:58:45.137Z,46.93
2023-01-29T20:01:17.026Z,33.63
2023-01-29T20:03:46.816Z,27.97
2023-01-29T20:06:18.163Z,25.60
2023-01-29T20:08:48.013Z,24.13
2023-01-29T20:11:19.690Z,32.73
2023-01-29T20:13:49.918Z,35.03
2023-01-29T20:16:19.496Z,26.90
2023-01-29T20:18:48.158Z,28.23
2023-01-29T20:21:20.653Z,48.83
2023-01-29T20:23:52.019Z,31.17
2023-01-29T20:26:23.219Z,20.30
2023-01-29T20:28:51.787Z,30.53
2023-01-29T20:31:20.351Z,28.50
2023-01-29T20:33:48.811Z,56.17
2023-01-29T20:36:17.284Z,44.60
2023-01-29T20:38:46.136Z,36.93
2023-01-29T20:41:17.942Z,22.70
2023-01-29T20:43:51.057Z,18.77
2023-01-29T20:46:20.056Z,18.10
2023-01-29T20:48:49.338Z,17.67
2023-01-29T20:51:19.790Z,16.70
2023-01-29T20:53:49.412Z,15.90
2023-01-29T20:56:32.037Z,15.67
2023-01-29T20:59:06.618Z,14.83
2023-01-29T21:01:35.105Z,15.47
2023-01-29T21:04:03.694Z,15.30
2023-01-29T21:06:36.312Z,14.00
2023-01-29T21:09:04.868Z,14.70
2023-01-29T21:11:33.743Z,12.03
2023-01-29T21:14:02.229Z,12.63
2023-01-29T21:16:32.420Z,12.83
2023-01-29T21:19:01.249Z,12.50
2023-01-29T21:21:29.800Z,11.47
2023-01-29T21:23:59.253Z,12.33
2023-01-29T21:26:27.867Z,12.43
2023-01-29T21:28:56.369Z,11.87
2023-01-29T21:31:24.935Z,11.67
2023-01-29T21:33:54.765Z,11.67
2023-01-29T21:36:23.366Z,10.57
2023-01-29T21:38:51.754Z,11.80
2023-01-29T21:41:40.377Z,11.67
2023-01-29T21:44:08.799Z,11.13
2023-01-29T21:46:37.318Z,10.97
2023-01-29T21:49:07.443Z,11.07
2023-01-29T21:51:35.928Z,11.27
2023-01-29T21:54:04.428Z,11.03
2023-01-29T21:56:32.899Z,10.37
2023-01-29T21:59:02.571Z,9.77
2023-01-29T22:01:37.373Z,9.40
2023-01-29T22:04:09.977Z,10.37
2023-01-29T22:06:38.513Z,9.60
2023-01-29T22:09:07.052Z,8.97
2023-01-29T22:11:35.789Z,9.13
2023-01-29T22:14:04.349Z,8.37
2023-01-29T22:16:32.779Z,8.93
2023-01-29T22:19:01.660Z,8.73
2023-01-29T22:21:31.576Z,8.70
2023-01-29T22:24:00.376Z,9.03
2023-01-29T22:26:29.809Z,7.90
2023-01-29T22:28:58.369Z,8.57
2023-01-29T22:31:26.892Z,7.73
2023-01-29T22:33:55.565Z,9.27
2023-01-29T22:36:24.439Z,9.20
2023-01-29T22:38:54.488Z,8.77
2023-01-29T22:41:23.013Z,8.00
2023-01-29T22:43:51.537Z,8.10
2023-01-29T22:46:20.082Z,8.20
2023-01-29T22:48:48.599Z,8.43
2023-01-29T22:51:17.001Z,8.57
2023-01-29T22:53:50.302Z,8.30
2023-01-29T22:56:21.765Z,8.57
2023-01-29T22:58:52.651Z,8.67
2023-01-29T23:01:21.941Z,9.20
2023-01-29T23:03:50.471Z,9.27
2023-01-29T23:06:19.591Z,9.00
2023-01-29T23:08:48.397Z,9.20
2023-01-29T23:11:20.265Z,10.17
2023-01-29T23:13:51.604Z,8.37
2023-01-29T23:16:21.520Z,9.77
2023-01-29T23:18:52.086Z,10.50
2023-01-29T23:21:21.321Z,9.57
2023-01-29T23:23:52.803Z,10.40
2023-01-29T23:26:38.602Z,9.30
2023-01-29T23:29:08.503Z,9.77
2023-01-29T23:31:37.006Z,9.53
2023-01-29T23:34:05.456Z,10.47
2023-01-29T23:36:33.978Z,9.60
2023-01-29T23:39:02.520Z,9.83
2023-01-29T23:41:32.197Z,9.03
2023-01-29T23:44:00.966Z,9.37
2023-01-29T23:46:31.007Z,9.80
2023-01-29T23:48:59.544Z,10.20
2023-01-29T23:51:28.078Z,10.83
2023-01-29T23:53:56.855Z,9.67
2023-01-29T23:56:26.166Z,9.83
2023-01-29T23:58:56.767Z,9.07
